sensor_id;sensor_type;location;lat;lon;timestamp;temperature;humidity
44117;DHT22;29781;49.480;8.512;2023-07-20T00:00:52;22.30;96.10
44117;DHT22;29781;49.480;8.512;2023-07-20T00:03:19;22.30;96.20
44117;DHT22;29781;49.480;8.512;2023-07-20T00:05:48;22.40;96.20
44117;DHT22;29781;49.480;8.512;2023-07-20T00:08:15;22.40;96.20
44117;DHT22;29781;49.480;8.512;2023-07-20T00:10:41;22.30;96.20
44117;DHT22;29781;49.480;8.512;2023-07-20T00:13:06;22.30;96.20
44117;DHT22;29781;49.480;8.512;2023-07-20T00:15:32;22.50;96.10
44117;DHT22;29781;49.480;8.512;2023-07-20T00:17:58;22.40;96.20
44117;DHT22;29781;49.480;8.512;2023-07-20T00:20:24;22.30;96.40
44117;DHT22;29781;49.480;8.512;2023-07-20T00:22:51;22.30;96.40
44117;DHT22;29781;49.480;8.512;2023-07-20T00:25:17;22.30;96.40
44117;DHT22;29781;49.480;8.512;2023-07-20T00:27:43;22.10;96.50
44117;DHT22;29781;49.480;8.512;2023-07-20T00:30:09;22.00;96.80
44117;DHT22;29781;49.480;8.512;2023-07-20T00:32:35;22.00;96.80
44117;DHT22;29781;49.480;8.512;2023-07-20T00:35:00;22.00;96.80
44117;DHT22;29781;49.480;8.512;2023-07-20T00:37:26;21.90;96.90
44117;DHT22;29781;49.480;8.512;2023-07-20T00:39:52;21.90;97.10
44117;DHT22;29781;49.480;8.512;2023-07-20T00:42:18;21.80;97.20
44117;DHT22;29781;49.480;8.512;2023-07-20T00:44:43;21.90;97.10
44117;DHT22;29781;49.480;8.512;2023-07-20T00:47:09;21.80;97.30
44117;DHT22;29781;49.480;8.512;2023-07-20T00:49:35;21.70;97.20
44117;DHT22;29781;49.480;8.512;2023-07-20T00:52:01;21.90;97.10
44117;DHT22;29781;49.480;8.512;2023-07-20T00:54:28;21.80;97.20
44117;DHT22;29781;49.480;8.512;2023-07-20T00:56:55;21.80;97.40
44117;DHT22;29781;49.480;8.512;2023-07-20T00:59:21;21.90;97.30
44117;DHT22;29781;49.480;8.512;2023-07-20T01:01:46;21.80;97.20
44117;DHT22;29781;49.480;8.512;2023-07-20T01:04:12;21.80;97.40
44117;DHT22;29781;49.480;8.512;2023-07-20T01:09:17;21.80;97.40
44117;DHT22;29781;49.480;8.512;2023-07-20T01:11:52;21.80;97.50
44117;DHT22;29781;49.480;8.512;2023-07-20T01:14:19;21.80;97.50
44117;DHT22;29781;49.480;8.512;2023-07-20T01:16:45;21.70;97.50
44117;DHT22;29781;49.480;8.512;2023-07-20T01:19:12;21.80;97.40
44117;DHT22;29781;49.480;8.512;2023-07-20T01:24:20;21.70;97.60
44117;DHT22;29781;49.480;8.512;2023-07-20T01:27:04;21.60;97.80
44117;DHT22;29781;49.480;8.512;2023-07-20T01:32:28;21.40;98.30
44117;DHT22;29781;49.480;8.512;2023-07-20T01:34:55;21.40;98.30
44117;DHT22;29781;49.480;8.512;2023-07-20T01:37:22;21.40;98.10
44117;DHT22;29781;49.480;8.512;2023-07-20T01:39:53;21.40;98.30
44117;DHT22;29781;49.480;8.512;2023-07-20T01:42:23;21.40;98.20
44117;DHT22;29781;49.480;8.512;2023-07-20T01:44:52;21.30;98.40
44117;DHT22;29781;49.480;8.512;2023-07-20T01:47:19;21.20;98.50
44117;DHT22;29781;49.480;8.512;2023-07-20T01:49:44;21.00;98.90
44117;DHT22;29781;49.480;8.512;2023-07-20T01:52:10;20.90;99.00
44117;DHT22;29781;49.480;8.512;2023-07-20T01:54:35;20.90;99.10
44117;DHT22;29781;49.480;8.512;2023-07-20T01:57:01;20.90;99.10
44117;DHT22;29781;49.480;8.512;2023-07-20T01:59:27;21.00;99.20
44117;DHT22;29781;49.480;8.512;2023-07-20T02:01:52;21.00;99.20
44117;DHT22;29781;49.480;8.512;2023-07-20T02:04:18;21.00;99.20
44117;DHT22;29781;49.480;8.512;2023-07-20T02:06:44;20.80;99.40
44117;DHT22;29781;49.480;8.512;2023-07-20T02:09:09;20.60;99.50
44117;DHT22;29781;49.480;8.512;2023-07-20T02:11:34;20.60;99.80
44117;DHT22;29781;49.480;8.512;2023-07-20T02:14:00;20.40;99.90
44117;DHT22;29781;49.480;8.512;2023-07-20T02:16:26;20.40;99.90
44117;DHT22;29781;49.480;8.512;2023-07-20T02:18:52;20.50;99.90
44117;DHT22;29781;49.480;8.512;2023-07-20T02:21:18;20.50;99.90
44117;DHT22;29781;49.480;8.512;2023-07-20T02:23:43;20.50;99.90
44117;DHT22;29781;49.480;8.512;2023-07-20T02:26:09;20.50;99.90
44117;DHT22;29781;49.480;8.512;2023-07-20T02:28:34;20.40;99.90
44117;DHT22;29781;49.480;8.512;2023-07-20T02:31:00;20.40;99.90
44117;DHT22;29781;49.480;8.512;2023-07-20T02:33:26;20.40;99.90
44117;DHT22;29781;49.480;8.512;2023-07-20T02:35:51;20.40;99.90
44117;DHT22;29781;49.480;8.512;2023-07-20T02:38:17;20.40;99.90
44117;DHT22;29781;49.480;8.512;2023-07-20T02:40:43;20.40;99.90
44117;DHT22;29781;49.480;8.512;2023-07-20T02:43:08;20.40;99.90
44117;DHT22;29781;49.480;8.512;2023-07-20T02:45:35;20.50;99.90
44117;DHT22;29781;49.480;8.512;2023-07-20T02:48:00;20.50;99.90
44117;DHT22;29781;49.480;8.512;2023-07-20T02:50:26;20.60;99.90
44117;DHT22;29781;49.480;8.512;2023-07-20T02:52:51;20.50;99.90
44117;DHT22;29781;49.480;8.512;2023-07-20T02:55:17;20.40;99.90
44117;DHT22;29781;49.480;8.512;2023-07-20T02:57:42;20.50;99.90
44117;DHT22;29781;49.480;8.512;2023-07-20T03:00:08;20.40;99.90
44117;DHT22;29781;49.480;8.512;2023-07-20T03:02:34;20.30;99.90
44117;DHT22;29781;49.480;8.512;2023-07-20T03:05:00;20.20;99.90
44117;DHT22;29781;49.480;8.512;2023-07-20T03:07:27;20.10;99.90
44117;DHT22;29781;49.480;8.512;2023-07-20T03:09:54;20.10;99.90
44117;DHT22;29781;49.480;8.512;2023-07-20T03:12:20;20.10;99.90
44117;DHT22;29781;49.480;8.512;2023-07-20T03:14:46;20.20;99.90
44117;DHT22;29781;49.480;8.512;2023-07-20T03:17:11;20.40;99.90
44117;DHT22;29781;49.480;8.512;2023-07-20T03:19:37;20.30;99.90
44117;DHT22;29781;49.480;8.512;2023-07-20T03:22:02;20.50;99.90
44117;DHT22;29781;49.480;8.512;2023-07-20T03:24:28;20.60;99.90
44117;DHT22;29781;49.480;8.512;2023-07-20T03:26:53;20.80;99.90
44117;DHT22;29781;49.480;8.512;2023-07-20T03:29:19;20.60;99.90
44117;DHT22;29781;49.480;8.512;2023-07-20T03:31:45;20.40;99.90
44117;DHT22;29781;49.480;8.512;2023-07-20T03:34:10;20.10;99.90
44117;DHT22;29781;49.480;8.512;2023-07-20T03:36:36;20.10;99.90
44117;DHT22;29781;49.480;8.512;2023-07-20T03:39:01;20.00;99.90
44117;DHT22;29781;49.480;8.512;2023-07-20T03:41:28;19.90;99.90
44117;DHT22;29781;49.480;8.512;2023-07-20T03:43:53;19.90;99.90
44117;DHT22;29781;49.480;8.512;2023-07-20T03:46:19;20.20;99.90
44117;DHT22;29781;49.480;8.512;2023-07-20T03:48:45;20.20;99.90
44117;DHT22;29781;49.480;8.512;2023-07-20T03:51:10;20.30;99.90
44117;DHT22;29781;49.480;8.512;2023-07-20T03:53:36;20.10;99.90
44117;DHT22;29781;49.480;8.512;2023-07-20T03:56:01;20.20;99.90
44117;DHT22;29781;49.480;8.512;2023-07-20T03:58:27;20.10;99.90
44117;DHT22;29781;49.480;8.512;2023-07-20T04:00:52;19.90;99.90
44117;DHT22;29781;49.480;8.512;2023-07-20T04:03:19;20.20;99.90
44117;DHT22;29781;49.480;8.512;2023-07-20T04:05:44;20.20;99.90
44117;DHT22;29781;49.480;8.512;2023-07-20T04:08:11;20.20;99.90
44117;DHT22;29781;49.480;8.512;2023-07-20T04:10:37;20.00;99.90
44117;DHT22;29781;49.480;8.512;2023-07-20T04:13:03;20.00;99.90
44117;DHT22;29781;49.480;8.512;2023-07-20T04:15:29;19.90;99.90
44117;DHT22;29781;49.480;8.512;2023-07-20T04:17:55;20.00;99.90
44117;DHT22;29781;49.480;8.512;2023-07-20T04:20:22;20.20;99.90
44117;DHT22;29781;49.480;8.512;2023-07-20T04:22:47;20.30;99.90
44117;DHT22;29781;49.480;8.512;2023-07-20T04:25:13;20.40;99.90
44117;DHT22;29781;49.480;8.512;2023-07-20T04:27:38;20.60;99.90
44117;DHT22;29781;49.480;8.512;2023-07-20T04:30:06;20.70;99.90
44117;DHT22;29781;49.480;8.512;2023-07-20T04:32:32;20.80;99.90
44117;DHT22;29781;49.480;8.512;2023-07-20T04:34:59;20.70;99.90
44117;DHT22;29781;49.480;8.512;2023-07-20T04:37:24;20.70;99.90
44117;DHT22;29781;49.480;8.512;2023-07-20T04:39:50;20.80;99.90
44117;DHT22;29781;49.480;8.512;2023-07-20T04:42:15;20.90;99.90
44117;DHT22;29781;49.480;8.512;2023-07-20T04:44:41;21.10;99.90
44117;DHT22;29781;49.480;8.512;2023-07-20T04:47:07;21.10;99.90
44117;DHT22;29781;49.480;8.512;2023-07-20T04:49:34;21.10;99.90
44117;DHT22;29781;49.480;8.512;2023-07-20T04:51:59;21.10;99.90
44117;DHT22;29781;49.480;8.512;2023-07-20T04:54:25;21.10;99.90
44117;DHT22;29781;49.480;8.512;2023-07-20T04:56:53;21.10;99.90
44117;DHT22;29781;49.480;8.512;2023-07-20T04:59:18;21.10;99.90
44117;DHT22;29781;49.480;8.512;2023-07-20T05:01:44;21.00;99.90
44117;DHT22;29781;49.480;8.512;2023-07-20T05:04:10;20.90;99.90
44117;DHT22;29781;49.480;8.512;2023-07-20T05:06:35;20.80;99.90
44117;DHT22;29781;49.480;8.512;2023-07-20T05:09:01;20.90;99.90
44117;DHT22;29781;49.480;8.512;2023-07-20T05:11:26;21.10;99.90
44117;DHT22;29781;49.480;8.512;2023-07-20T05:13:52;21.20;99.90
44117;DHT22;29781;49.480;8.512;2023-07-20T05:16:17;21.30;99.90
44117;DHT22;29781;49.480;8.512;2023-07-20T05:18:43;21.30;99.90
44117;DHT22;29781;49.480;8.512;2023-07-20T05:21:08;21.30;99.90
44117;DHT22;29781;49.480;8.512;2023-07-20T05:23:34;21.30;99.90
44117;DHT22;29781;49.480;8.512;2023-07-20T05:25:59;21.30;99.90
44117;DHT22;29781;49.480;8.512;2023-07-20T05:28:26;21.40;99.90
44117;DHT22;29781;49.480;8.512;2023-07-20T05:30:55;21.30;99.90
44117;DHT22;29781;49.480;8.512;2023-07-20T05:33:21;21.20;99.90
44117;DHT22;29781;49.480;8.512;2023-07-20T05:35:47;21.00;99.90
44117;DHT22;29781;49.480;8.512;2023-07-20T05:38:13;21.00;99.90
44117;DHT22;29781;49.480;8.512;2023-07-20T05:40:40;20.90;99.90
44117;DHT22;29781;49.480;8.512;2023-07-20T05:43:06;21.00;99.90
44117;DHT22;29781;49.480;8.512;2023-07-20T05:45:32;21.10;99.90
44117;DHT22;29781;49.480;8.512;2023-07-20T05:47:57;21.10;99.90
44117;DHT22;29781;49.480;8.512;2023-07-20T05:50:23;21.00;99.90
44117;DHT22;29781;49.480;8.512;2023-07-20T05:52:48;21.00;99.90
44117;DHT22;29781;49.480;8.512;2023-07-20T05:55:14;21.10;99.90
44117;DHT22;29781;49.480;8.512;2023-07-20T05:57:39;21.10;99.90
44117;DHT22;29781;49.480;8.512;2023-07-20T06:00:07;21.10;99.90
44117;DHT22;29781;49.480;8.512;2023-07-20T06:02:33;21.10;99.90
44117;DHT22;29781;49.480;8.512;2023-07-20T06:04:59;21.00;99.90
44117;DHT22;29781;49.480;8.512;2023-07-20T06:07:24;21.00;99.90
44117;DHT22;29781;49.480;8.512;2023-07-20T06:09:50;21.00;99.90
44117;DHT22;29781;49.480;8.512;2023-07-20T06:12:15;21.00;99.90
44117;DHT22;29781;49.480;8.512;2023-07-20T06:14:41;21.00;99.90
44117;DHT22;29781;49.480;8.512;2023-07-20T06:17:06;21.00;99.90
44117;DHT22;29781;49.480;8.512;2023-07-20T06:19:32;21.00;99.90
44117;DHT22;29781;49.480;8.512;2023-07-20T06:21:57;21.00;99.90
44117;DHT22;29781;49.480;8.512;2023-07-20T06:24:23;20.70;99.90
44117;DHT22;29781;49.480;8.512;2023-07-20T06:26:48;20.70;99.90
44117;DHT22;29781;49.480;8.512;2023-07-20T06:29:14;20.80;99.90
44117;DHT22;29781;49.480;8.512;2023-07-20T06:31:39;21.10;99.90
44117;DHT22;29781;49.480;8.512;2023-07-20T06:34:05;21.10;99.90
44117;DHT22;29781;49.480;8.512;2023-07-20T06:36:31;21.10;99.90
44117;DHT22;29781;49.480;8.512;2023-07-20T06:38:56;21.10;99.90
44117;DHT22;29781;49.480;8.512;2023-07-20T06:41:22;21.00;99.90
44117;DHT22;29781;49.480;8.512;2023-07-20T06:43:48;21.10;99.90
44117;DHT22;29781;49.480;8.512;2023-07-20T06:46:13;21.20;99.90
44117;DHT22;29781;49.480;8.512;2023-07-20T06:48:39;21.30;99.90
44117;DHT22;29781;49.480;8.512;2023-07-20T06:51:05;21.20;99.90
44117;DHT22;29781;49.480;8.512;2023-07-20T06:53:30;21.30;99.90
44117;DHT22;29781;49.480;8.512;2023-07-20T06:55:56;21.70;99.90
44117;DHT22;29781;49.480;8.512;2023-07-20T06:58:24;21.90;99.90
44117;DHT22;29781;49.480;8.512;2023-07-20T07:00:50;21.70;99.90
44117;DHT22;29781;49.480;8.512;2023-07-20T07:03:16;21.60;99.90
44117;DHT22;29781;49.480;8.512;2023-07-20T07:05:42;21.80;99.90
44117;DHT22;29781;49.480;8.512;2023-07-20T07:08:08;21.80;99.90
44117;DHT22;29781;49.480;8.512;2023-07-20T07:10:35;22.00;99.90
44117;DHT22;29781;49.480;8.512;2023-07-20T07:13:01;22.10;99.90
44117;DHT22;29781;49.480;8.512;2023-07-20T07:15:27;22.40;99.90
44117;DHT22;29781;49.480;8.512;2023-07-20T07:17:53;22.30;99.90
44117;DHT22;29781;49.480;8.512;2023-07-20T07:20:18;22.40;99.90
44117;DHT22;29781;49.480;8.512;2023-07-20T07:22:44;22.40;99.90
44117;DHT22;29781;49.480;8.512;2023-07-20T07:25:10;22.40;99.90
44117;DHT22;29781;49.480;8.512;2023-07-20T07:27:36;22.50;99.90
44117;DHT22;29781;49.480;8.512;2023-07-20T07:30:05;22.40;99.90
44117;DHT22;29781;49.480;8.512;2023-07-20T07:32:31;22.60;99.90
44117;DHT22;29781;49.480;8.512;2023-07-20T07:34:56;22.50;99.90
44117;DHT22;29781;49.480;8.512;2023-07-20T07:37:24;22.70;99.90
44117;DHT22;29781;49.480;8.512;2023-07-20T07:39:49;22.50;99.90
44117;DHT22;29781;49.480;8.512;2023-07-20T07:42:15;22.70;99.90
44117;DHT22;29781;49.480;8.512;2023-07-20T07:44:41;22.80;99.90
44117;DHT22;29781;49.480;8.512;2023-07-20T07:47:06;22.90;99.90
44117;DHT22;29781;49.480;8.512;2023-07-20T07:49:32;23.10;99.90
44117;DHT22;29781;49.480;8.512;2023-07-20T07:51:58;23.30;99.90
44117;DHT22;29781;49.480;8.512;2023-07-20T07:54:23;23.20;99.90
44117;DHT22;29781;49.480;8.512;2023-07-20T07:56:49;22.90;99.80
44117;DHT22;29781;49.480;8.512;2023-07-20T07:59:16;22.60;99.80
44117;DHT22;29781;49.480;8.512;2023-07-20T08:01:42;22.40;99.90
44117;DHT22;29781;49.480;8.512;2023-07-20T08:04:07;22.20;99.90
44117;DHT22;29781;49.480;8.512;2023-07-20T08:06:33;22.00;99.90
44117;DHT22;29781;49.480;8.512;2023-07-20T08:08:59;22.00;99.90
44117;DHT22;29781;49.480;8.512;2023-07-20T08:11:25;21.90;99.90
44117;DHT22;29781;49.480;8.512;2023-07-20T08:13:50;22.00;99.90
44117;DHT22;29781;49.480;8.512;2023-07-20T08:16:16;22.10;99.90
44117;DHT22;29781;49.480;8.512;2023-07-20T08:18:42;22.50;99.90
44117;DHT22;29781;49.480;8.512;2023-07-20T08:21:07;22.60;99.90
44117;DHT22;29781;49.480;8.512;2023-07-20T08:23:33;22.60;99.90
44117;DHT22;29781;49.480;8.512;2023-07-20T08:25:58;22.50;99.80
44117;DHT22;29781;49.480;8.512;2023-07-20T08:28:24;22.60;99.90
44117;DHT22;29781;49.480;8.512;2023-07-20T08:30:51;22.60;99.90
44117;DHT22;29781;49.480;8.512;2023-07-20T08:33:18;22.70;99.90
44117;DHT22;29781;49.480;8.512;2023-07-20T08:35:45;22.70;99.90
44117;DHT22;29781;49.480;8.512;2023-07-20T08:38:11;22.40;99.90
44117;DHT22;29781;49.480;8.512;2023-07-20T08:40:41;22.50;99.90
44117;DHT22;29781;49.480;8.512;2023-07-20T08:43:07;23.00;99.90
44117;DHT22;29781;49.480;8.512;2023-07-20T08:45:34;23.30;99.70
44117;DHT22;29781;49.480;8.512;2023-07-20T08:48:02;23.50;99.00
44117;DHT22;29781;49.480;8.512;2023-07-20T08:50:30;23.20;99.10
44117;DHT22;29781;49.480;8.512;2023-07-20T08:52:57;23.20;99.30
44117;DHT22;29781;49.480;8.512;2023-07-20T08:55:24;23.10;99.40
44117;DHT22;29781;49.480;8.512;2023-07-20T08:57:54;23.10;99.20
44117;DHT22;29781;49.480;8.512;2023-07-20T09:00:21;22.90;99.10
44117;DHT22;29781;49.480;8.512;2023-07-20T09:02:49;23.00;99.40
44117;DHT22;29781;49.480;8.512;2023-07-20T09:05:16;23.10;99.40
44117;DHT22;29781;49.480;8.512;2023-07-20T09:07:41;23.50;98.60
44117;DHT22;29781;49.480;8.512;2023-07-20T09:10:07;23.80;98.00
44117;DHT22;29781;49.480;8.512;2023-07-20T09:12:39;23.80;98.10
44117;DHT22;29781;49.480;8.512;2023-07-20T09:15:06;23.50;97.60
44117;DHT22;29781;49.480;8.512;2023-07-20T09:17:33;23.50;97.20
44117;DHT22;29781;49.480;8.512;2023-07-20T09:19:59;23.20;97.90
44117;DHT22;29781;49.480;8.512;2023-07-20T09:22:30;23.00;98.50
44117;DHT22;29781;49.480;8.512;2023-07-20T09:24:56;23.00;97.80
44117;DHT22;29781;49.480;8.512;2023-07-20T09:27:22;22.90;98.50
44117;DHT22;29781;49.480;8.512;2023-07-20T09:29:51;23.10;98.50
44117;DHT22;29781;49.480;8.512;2023-07-20T09:32:21;23.10;98.20
44117;DHT22;29781;49.480;8.512;2023-07-20T09:34:47;23.10;98.20
44117;DHT22;29781;49.480;8.512;2023-07-20T09:37:20;23.10;98.30
44117;DHT22;29781;49.480;8.512;2023-07-20T09:39:46;23.10;98.40
44117;DHT22;29781;49.480;8.512;2023-07-20T09:42:12;23.10;98.70
44117;DHT22;29781;49.480;8.512;2023-07-20T09:44:43;23.20;99.20
44117;DHT22;29781;49.480;8.512;2023-07-20T09:47:09;23.40;98.70
44117;DHT22;29781;49.480;8.512;2023-07-20T09:49:41;23.50;97.60
44117;DHT22;29781;49.480;8.512;2023-07-20T09:52:08;23.30;98.40
44117;DHT22;29781;49.480;8.512;2023-07-20T09:54:39;23.50;97.50
44117;DHT22;29781;49.480;8.512;2023-07-20T09:57:07;23.60;97.10
44117;DHT22;29781;49.480;8.512;2023-07-20T09:59:37;23.50;98.00
44117;DHT22;29781;49.480;8.512;2023-07-20T10:02:11;24.10;97.40
44117;DHT22;29781;49.480;8.512;2023-07-20T10:04:42;24.60;97.10
44117;DHT22;29781;49.480;8.512;2023-07-20T10:07:10;25.10;96.10
44117;DHT22;29781;49.480;8.512;2023-07-20T10:09:39;25.10;95.60
44117;DHT22;29781;49.480;8.512;2023-07-20T10:12:07;25.30;95.30
44117;DHT22;29781;49.480;8.512;2023-07-20T10:14:37;25.00;95.60
44117;DHT22;29781;49.480;8.512;2023-07-20T10:17:05;24.50;95.50
44117;DHT22;29781;49.480;8.512;2023-07-20T10:19:42;23.80;96.50
44117;DHT22;29781;49.480;8.512;2023-07-20T10:22:17;23.50;97.00
44117;DHT22;29781;49.480;8.512;2023-07-20T10:24:46;23.50;97.50
44117;DHT22;29781;49.480;8.512;2023-07-20T10:27:13;23.40;97.20
44117;DHT22;29781;49.480;8.512;2023-07-20T10:29:40;23.20;97.40
44117;DHT22;29781;49.480;8.512;2023-07-20T10:32:06;23.30;97.40
44117;DHT22;29781;49.480;8.512;2023-07-20T10:34:32;23.60;96.70
44117;DHT22;29781;49.480;8.512;2023-07-20T10:36:59;24.00;96.30
44117;DHT22;29781;49.480;8.512;2023-07-20T10:39:25;24.30;95.50
44117;DHT22;29781;49.480;8.512;2023-07-20T10:42:00;24.80;95.40
44117;DHT22;29781;49.480;8.512;2023-07-20T10:44:27;24.80;95.50
44117;DHT22;29781;49.480;8.512;2023-07-20T10:47:02;25.10;95.10
44117;DHT22;29781;49.480;8.512;2023-07-20T10:49:28;25.10;94.80
44117;DHT22;29781;49.480;8.512;2023-07-20T10:51:58;25.30;94.60
44117;DHT22;29781;49.480;8.512;2023-07-20T10:56:52;25.20;94.60
44117;DHT22;29781;49.480;8.512;2023-07-20T11:01:44;25.10;94.20
44117;DHT22;29781;49.480;8.512;2023-07-20T11:04:11;25.20;94.00
44117;DHT22;29781;49.480;8.512;2023-07-20T11:06:36;25.30;94.30
44117;DHT22;29781;49.480;8.512;2023-07-20T11:09:08;25.30;94.00
44117;DHT22;29781;49.480;8.512;2023-07-20T11:11:43;25.20;94.10
44117;DHT22;29781;49.480;8.512;2023-07-20T11:14:11;25.30;94.10
44117;DHT22;29781;49.480;8.512;2023-07-20T11:16:47;25.40;93.90
44117;DHT22;29781;49.480;8.512;2023-07-20T11:19:26;25.50;93.70
44117;DHT22;29781;49.480;8.512;2023-07-20T11:21:52;25.70;93.50
44117;DHT22;29781;49.480;8.512;2023-07-20T11:24:18;25.80;93.10
44117;DHT22;29781;49.480;8.512;2023-07-20T11:26:45;25.70;92.90
44117;DHT22;29781;49.480;8.512;2023-07-20T11:29:12;25.80;91.90
44117;DHT22;29781;49.480;8.512;2023-07-20T11:31:41;25.60;91.90
44117;DHT22;29781;49.480;8.512;2023-07-20T11:34:15;25.80;91.90
44117;DHT22;29781;49.480;8.512;2023-07-20T11:36:42;25.90;91.10
44117;DHT22;29781;49.480;8.512;2023-07-20T11:39:15;25.80;91.10
44117;DHT22;29781;49.480;8.512;2023-07-20T11:41:50;25.80;91.50
44117;DHT22;29781;49.480;8.512;2023-07-20T11:44:21;25.70;91.30
44117;DHT22;29781;49.480;8.512;2023-07-20T11:47:23;25.90;91.80
44117;DHT22;29781;49.480;8.512;2023-07-20T11:49:54;25.90;91.90
44117;DHT22;29781;49.480;8.512;2023-07-20T11:52:22;25.90;92.00
44117;DHT22;29781;49.480;8.512;2023-07-20T11:54:48;25.80;90.90
44117;DHT22;29781;49.480;8.512;2023-07-20T11:57:21;25.50;90.80
44117;DHT22;29781;49.480;8.512;2023-07-20T11:59:56;25.10;91.30
44117;DHT22;29781;49.480;8.512;2023-07-20T12:02:29;24.90;91.50
44117;DHT22;29781;49.480;8.512;2023-07-20T12:04:56;24.70;92.20
44117;DHT22;29781;49.480;8.512;2023-07-20T12:07:21;24.50;92.40
44117;DHT22;29781;49.480;8.512;2023-07-20T12:10:10;24.50;93.00
44117;DHT22;29781;49.480;8.512;2023-07-20T12:12:40;24.80;92.80
44117;DHT22;29781;49.480;8.512;2023-07-20T12:15:25;24.80;93.10
44117;DHT22;29781;49.480;8.512;2023-07-20T12:17:59;25.00;92.50
44117;DHT22;29781;49.480;8.512;2023-07-20T12:20:33;25.00;92.50
44117;DHT22;29781;49.480;8.512;2023-07-20T12:23:03;24.80;92.70
44117;DHT22;29781;49.480;8.512;2023-07-20T12:25:40;24.90;92.70
44117;DHT22;29781;49.480;8.512;2023-07-20T12:28:10;25.00;92.80
44117;DHT22;29781;49.480;8.512;2023-07-20T12:30:37;25.20;92.40
44117;DHT22;29781;49.480;8.512;2023-07-20T12:33:03;25.40;92.10
44117;DHT22;29781;49.480;8.512;2023-07-20T12:35:30;25.60;91.80
44117;DHT22;29781;49.480;8.512;2023-07-20T12:37:55;25.50;91.90
44117;DHT22;29781;49.480;8.512;2023-07-20T12:40:21;25.20;92.40
44117;DHT22;29781;49.480;8.512;2023-07-20T12:42:47;24.80;92.60
44117;DHT22;29781;49.480;8.512;2023-07-20T12:45:13;24.70;92.60
44117;DHT22;29781;49.480;8.512;2023-07-20T12:47:39;24.70;92.40
44117;DHT22;29781;49.480;8.512;2023-07-20T12:50:06;25.00;92.00
44117;DHT22;29781;49.480;8.512;2023-07-20T12:52:35;24.90;92.10
44117;DHT22;29781;49.480;8.512;2023-07-20T12:55:02;24.80;92.40
44117;DHT22;29781;49.480;8.512;2023-07-20T12:57:27;24.70;92.50
44117;DHT22;29781;49.480;8.512;2023-07-20T12:59:53;24.50;92.90
44117;DHT22;29781;49.480;8.512;2023-07-20T13:02:18;24.20;93.00
44117;DHT22;29781;49.480;8.512;2023-07-20T13:04:44;24.30;93.10
44117;DHT22;29781;49.480;8.512;2023-07-20T13:07:10;24.30;93.10
44117;DHT22;29781;49.480;8.512;2023-07-20T13:09:37;24.70;92.70
44117;DHT22;29781;49.480;8.512;2023-07-20T13:12:02;24.80;92.70
44117;DHT22;29781;49.480;8.512;2023-07-20T13:14:28;25.10;92.70
44117;DHT22;29781;49.480;8.512;2023-07-20T13:16:55;25.10;92.60
44117;DHT22;29781;49.480;8.512;2023-07-20T13:19:21;25.20;92.90
44117;DHT22;29781;49.480;8.512;2023-07-20T13:21:47;25.10;92.90
44117;DHT22;29781;49.480;8.512;2023-07-20T13:24:12;25.20;92.50
44117;DHT22;29781;49.480;8.512;2023-07-20T13:26:38;25.30;92.00
44117;DHT22;29781;49.480;8.512;2023-07-20T13:29:03;25.40;92.30
44117;DHT22;29781;49.480;8.512;2023-07-20T13:31:29;25.50;92.30
44117;DHT22;29781;49.480;8.512;2023-07-20T13:33:55;25.50;91.80
44117;DHT22;29781;49.480;8.512;2023-07-20T13:36:22;25.60;91.90
44117;DHT22;29781;49.480;8.512;2023-07-20T13:38:47;25.80;92.20
44117;DHT22;29781;49.480;8.512;2023-07-20T13:41:14;25.90;92.10
44117;DHT22;29781;49.480;8.512;2023-07-20T13:43:40;25.60;91.20
44117;DHT22;29781;49.480;8.512;2023-07-20T13:46:06;25.30;92.00
44117;DHT22;29781;49.480;8.512;2023-07-20T13:48:31;25.60;91.60
44117;DHT22;29781;49.480;8.512;2023-07-20T13:50:57;25.60;91.50
44117;DHT22;29781;49.480;8.512;2023-07-20T13:53:23;25.60;91.70
44117;DHT22;29781;49.480;8.512;2023-07-20T13:55:48;25.40;91.70
44117;DHT22;29781;49.480;8.512;2023-07-20T13:58:14;25.40;92.00
44117;DHT22;29781;49.480;8.512;2023-07-20T14:00:40;25.50;92.10
44117;DHT22;29781;49.480;8.512;2023-07-20T14:03:05;25.70;91.30
44117;DHT22;29781;49.480;8.512;2023-07-20T14:05:31;25.70;91.50
44117;DHT22;29781;49.480;8.512;2023-07-20T14:07:56;25.70;91.20
44117;DHT22;29781;49.480;8.512;2023-07-20T14:10:22;25.80;90.90
44117;DHT22;29781;49.480;8.512;2023-07-20T14:12:48;25.50;90.80
44117;DHT22;29781;49.480;8.512;2023-07-20T14:15:13;25.60;91.20
44117;DHT22;29781;49.480;8.512;2023-07-20T14:17:39;25.80;90.90
44117;DHT22;29781;49.480;8.512;2023-07-20T14:20:05;26.00;90.90
44117;DHT22;29781;49.480;8.512;2023-07-20T14:22:32;26.30;90.30
44117;DHT22;29781;49.480;8.512;2023-07-20T14:24:57;26.40;90.30
44117;DHT22;29781;49.480;8.512;2023-07-20T14:27:24;26.20;90.20
44117;DHT22;29781;49.480;8.512;2023-07-20T14:29:49;26.00;90.70
44117;DHT22;29781;49.480;8.512;2023-07-20T14:32:15;26.10;90.70
44117;DHT22;29781;49.480;8.512;2023-07-20T14:34:40;26.20;89.10
44117;DHT22;29781;49.480;8.512;2023-07-20T14:37:06;25.60;90.20
44117;DHT22;29781;49.480;8.512;2023-07-20T14:39:32;25.30;90.60
44117;DHT22;29781;49.480;8.512;2023-07-20T14:41:58;25.20;90.50
44117;DHT22;29781;49.480;8.512;2023-07-20T14:44:23;25.20;91.10
44117;DHT22;29781;49.480;8.512;2023-07-20T14:46:50;25.50;91.20
44117;DHT22;29781;49.480;8.512;2023-07-20T14:49:16;25.70;90.60
44117;DHT22;29781;49.480;8.512;2023-07-20T14:51:41;25.80;90.40
44117;DHT22;29781;49.480;8.512;2023-07-20T14:54:12;25.80;90.20
44117;DHT22;29781;49.480;8.512;2023-07-20T14:56:38;25.80;89.80
44117;DHT22;29781;49.480;8.512;2023-07-20T14:59:04;25.60;90.20
44117;DHT22;29781;49.480;8.512;2023-07-20T15:01:31;25.50;90.10
44117;DHT22;29781;49.480;8.512;2023-07-20T15:03:57;25.30;90.30
44117;DHT22;29781;49.480;8.512;2023-07-20T15:06:23;25.10;90.10
44117;DHT22;29781;49.480;8.512;2023-07-20T15:08:48;25.10;90.60
44117;DHT22;29781;49.480;8.512;2023-07-20T15:11:14;25.30;90.40
44117;DHT22;29781;49.480;8.512;2023-07-20T15:13:39;25.30;90.00
44117;DHT22;29781;49.480;8.512;2023-07-20T15:16:07;25.30;90.20
44117;DHT22;29781;49.480;8.512;2023-07-20T15:18:33;25.30;90.50
44117;DHT22;29781;49.480;8.512;2023-07-20T15:20:58;25.40;90.20
44117;DHT22;29781;49.480;8.512;2023-07-20T15:23:24;25.50;90.20
44117;DHT22;29781;49.480;8.512;2023-07-20T15:25:49;25.50;90.10
44117;DHT22;29781;49.480;8.512;2023-07-20T15:28:15;25.60;90.30
44117;DHT22;29781;49.480;8.512;2023-07-20T15:30:41;25.70;90.10
44117;DHT22;29781;49.480;8.512;2023-07-20T15:33:06;25.80;90.30
44117;DHT22;29781;49.480;8.512;2023-07-20T15:35:32;26.00;90.50
44117;DHT22;29781;49.480;8.512;2023-07-20T15:37:57;26.20;90.00
44117;DHT22;29781;49.480;8.512;2023-07-20T15:40:24;26.00;90.00